Time;durP1;ratioP1;P1;durP2;ratioP2;P2;SDS_P1;SDS_P2;PMS_P1;PMS_P2;Temp;Humidity;BMP_temperature;BMP_pressure;BME280_temperature;BME280_humidity;BME280_pressure;Samples;Min_cycle;Max_cycle;Signal;HPM_P1;HPM_P2
2021/01/10 00:00:00;;;;;;;6.33;4.87;;;7.50;81.00;;;;;;5104989;28;20049;-42
2021/01/10 00:02:26;;;;;;;5.60;4.63;;;7.60;81.00;;;;;;5105327;28;20048;-42
2021/01/10 00:04:52;;;;;;;7.75;6.15;;;7.50;81.00;;;;;;5105268;28;20024;-42
2021/01/10 00:07:25;;;;;;;8.33;6.37;;;7.50;81.00;;;;;;5105368;28;20058;-41
2021/01/10 00:09:51;;;;;;;9.63;6.57;;;7.50;80.90;;;;;;5086377;28;20040;-41
2021/01/10 00:12:27;;;;;;;8.20;6.85;;;7.50;80.90;;;;;;5087047;28;20077;-43
2021/01/10 00:14:53;;;;;;;8.70;6.82;;;7.50;80.90;;;;;;5104986;28;20037;-41
2021/01/10 00:17:20;;;;;;;8.23;6.03;;;7.50;80.90;;;;;;5104723;28;20050;-41
2021/01/10 00:19:46;;;;;;;6.20;4.72;;;7.50;80.90;;;;;;5104105;28;20169;-41
2021/01/10 00:22:13;;;;;;;6.40;4.65;;;7.50;81.00;;;;;;5105129;28;20035;-41
2021/01/10 00:24:40;;;;;;;8.32;6.68;;;7.40;80.80;;;;;;5103873;28;20028;-41
2021/01/10 00:27:14;;;;;;;10.05;6.55;;;7.40;81.50;;;;;;5104549;28;20146;-41
2021/01/10 00:29:47;;;;;;;8.95;6.40;;;7.40;80.80;;;;;;5120124;28;20089;-41
2021/01/10 00:32:14;;;;;;;8.23;6.03;;;7.40;80.80;;;;;;5104498;28;20028;-41
2021/01/10 00:34:41;;;;;;;8.95;6.97;;;7.40;80.80;;;;;;5104586;28;20028;-41
2021/01/10 00:37:15;;;;;;;8.27;6.30;;;7.40;80.90;;;;;;5104935;28;20032;-41
2021/01/10 00:39:41;;;;;;;9.05;7.07;;;7.40;80.80;;;;;;5104315;28;20031;-42
2021/01/10 00:42:08;;;;;;;6.33;4.90;;;7.30;80.80;;;;;;5085845;28;20039;-41
2021/01/10 00:44:35;;;;;;;8.57;6.50;;;7.40;80.80;;;;;;5086327;28;20331;-41
2021/01/10 00:47:01;;;;;;;10.20;6.45;;;7.40;80.80;;;;;;5104633;28;20055;-42
2021/01/10 00:49:27;;;;;;;5.57;4.50;;;7.30;80.80;;;;;;5104341;28;20078;-42
2021/01/10 00:51:53;;;;;;;9.02;6.88;;;7.30;80.80;;;;;;5104017;28;20032;-41
2021/01/10 00:54:20;;;;;;;9.82;7.10;;;7.30;80.80;;;;;;5104345;28;20032;-42
2021/01/10 00:56:47;;;;;;;9.98;6.85;;;7.30;80.80;;;;;;5104164;28;20048;-41
2021/01/10 00:59:13;;;;;;;7.38;6.50;;;7.30;80.80;;;;;;5103632;28;20035;-41
2021/01/10 01:01:39;;;;;;;8.27;6.53;;;7.30;80.80;;;;;;5103980;28;20020;-41
2021/01/10 01:04:05;;;;;;;9.65;6.82;;;7.30;80.90;;;;;;5103931;28;20280;-41
2021/01/10 01:06:32;;;;;;;11.18;7.00;;;7.30;80.90;;;;;;5103222;28;20024;-41
2021/01/10 01:08:58;;;;;;;8.25;6.32;;;7.30;80.80;;;;;;5085548;28;20024;-41
2021/01/10 01:11:31;;;;;;;9.10;7.22;;;7.30;80.90;;;;;;5085020;28;20057;-56
2021/01/10 01:13:58;;;;;;;16.27;6.95;;;7.30;80.90;;;;;;5104071;28;20020;-42
2021/01/10 01:16:24;;;;;;;16.88;6.72;;;7.50;80.60;;;;;;5103771;28;20032;-40
2021/01/10 01:18:50;;;;;;;17.10;8.05;;;7.70;81.50;;;;;;5103469;28;20493;-38
2021/01/10 01:21:17;;;;;;;17.65;7.90;;;7.80;83.40;;;;;;5103494;28;20028;-38
2021/01/10 01:23:43;;;;;;;14.68;7.80;;;8.10;82.50;;;;;;5103305;28;20028;-38
2021/01/10 01:26:19;;;;;;;12.95;8.35;;;8.40;82.00;;;;;;5103570;28;20122;-38
2021/01/10 01:28:45;;;;;;;17.88;9.15;;;8.50;80.90;;;;;;5103560;28;20048;-38
2021/01/10 01:31:15;;;;;;;15.80;9.33;;;8.60;81.00;;;;;;5103412;28;20682;-38
2021/01/10 01:33:42;;;;;;;13.25;9.20;;;8.60;80.80;;;;;;5084467;28;20024;-38
2021/01/10 01:36:12;;;;;;;9.18;6.75;;;8.70;80.80;;;;;;5103649;28;20095;-38
2021/01/10 01:38:39;;;;;;;15.80;10.27;;;8.80;81.20;;;;;;5103334;28;20024;-38
2021/01/10 01:41:08;;;;;;;15.30;10.35;;;8.80;81.50;;;;;;5103188;28;20405;-45
2021/01/10 01:43:38;;;;;;;14.10;9.60;;;9.00;83.50;;;;;;5103525;28;20058;-42
2021/01/10 01:46:10;;;;;;;16.52;10.38;;;9.20;83.30;;;;;;5098301;28;20087;-41
2021/01/10 01:48:37;;;;;;;11.95;9.55;;;9.40;83.00;;;;;;5103123;28;20024;-44
2021/01/10 01:51:04;;;;;;;13.10;9.52;;;9.50;82.90;;;;;;5101410;28;20046;-40
2021/01/10 01:53:30;;;;;;;13.25;8.82;;;9.70;82.60;;;;;;5103184;28;20056;-43
2021/01/10 01:55:57;;;;;;;8.55;7.22;;;9.80;82.40;;;;;;5102997;28;20049;-41
2021/01/10 01:58:24;;;;;;;12.02;9.20;;;9.90;82.30;;;;;;5103082;28;20028;-41
2021/01/10 02:00:50;;;;;;;21.30;10.50;;;10.10;82.10;;;;;;5102673;28;20031;-43
2021/01/10 02:03:37;;;;;;;13.88;9.77;;;10.40;81.80;;;;;;5084622;28;20025;-43
2021/01/10 02:06:18;;;;;;;11.35;8.35;;;10.50;81.30;;;;;;5103343;28;20031;-43
2021/01/10 02:08:45;;;;;;;11.73;8.45;;;10.60;80.80;;;;;;5068412;28;20017;-44
2021/01/10 02:11:11;;;;;;;12.95;8.57;;;10.60;80.40;;;;;;5102424;28;20078;-45
2021/01/10 02:13:38;;;;;;;10.77;7.50;;;10.80;79.90;;;;;;5102803;28;20016;-40
2021/01/10 02:16:04;;;;;;;12.00;7.68;;;10.90;80.00;;;;;;5084078;28;20099;-40
2021/01/10 02:18:30;;;;;;;12.13;6.00;;;11.10;79.60;;;;;;5067808;28;20430;-43
2021/01/10 02:21:01;;;;;;;12.00;7.38;;;11.10;79.30;;;;;;5084610;28;20028;-44
2021/01/10 02:23:28;;;;;;;9.55;6.65;;;11.20;78.70;;;;;;5084579;28;20051;-38
2021/01/10 02:25:54;;;;;;;10.95;6.97;;;11.30;78.40;;;;;;5084906;28;20032;-40
2021/01/10 02:28:22;;;;;;;9.73;6.10;;;11.40;77.80;;;;;;5084478;28;20097;-41
2021/01/10 02:30:48;;;;;;;9.07;6.55;;;11.50;77.70;;;;;;5102496;28;20152;-40
2021/01/10 02:33:44;;;;;;;6.53;5.80;;;11.60;77.40;;;;;;5084153;28;20020;-43
2021/01/10 02:36:43;;;;;;;7.95;5.70;;;11.70;77.10;;;;;;5084532;28;20374;-42
2021/01/10 02:39:30;;;;;;;9.15;5.55;;;11.80;76.80;;;;;;5077383;28;20032;-43
2021/01/10 02:42:36;;;;;;;7.55;5.25;;;11.80;76.50;;;;;;5102015;28;20046;-41
2021/01/10 02:45:12;;;;;;;7.72;5.63;;;11.90;76.90;;;;;;5023271;28;20022;-42
2021/01/10 02:47:39;;;;;;;9.75;4.95;;;12.00;76.10;;;;;;5023674;28;20192;-43
2021/01/10 02:50:06;;;;;;;8.45;5.10;;;12.00;76.10;;;;;;5050643;28;20069;-41
2021/01/10 02:52:33;;;;;;;8.10;5.20;;;12.10;75.80;;;;;;5051219;28;20065;-43
2021/01/10 02:54:59;;;;;;;10.20;5.20;;;12.10;75.60;;;;;;5039536;28;20037;-42
2021/01/10 02:57:56;;;;;;;6.65;4.88;;;12.20;75.50;;;;;;5039512;28;20040;-40
2021/01/10 03:00:23;;;;;;;14.00;4.72;;;12.20;75.50;;;;;;5044777;28;20124;-39
2021/01/10 14:57:20;;;;;;;29.17;8.82;;;7.90;78.10;;;;;;5100509;27;20909;-40
2021/01/10 14:59:47;;;;;;;32.65;8.40;;;7.90;79.10;;;;;;5102350;28;20059;-38
2021/01/10 15:02:13;;;;;;;27.38;9.73;;;7.90;79.10;;;;;;5101871;28;20028;-52
2021/01/10 15:04:39;;;;;;;32.17;9.55;;;8.00;79.00;;;;;;5102374;28;20028;-39
2021/01/10 15:07:05;;;;;;;41.15;10.13;;;8.10;78.80;;;;;;5100976;28;20032;-37
2021/01/10 15:09:32;;;;;;;33.28;10.80;;;8.10;78.60;;;;;;5100505;28;20088;-37
2021/01/10 15:11:58;;;;;;;31.05;10.00;;;8.20;78.10;;;;;;5111167;28;20016;-37
2021/01/10 15:14:24;;;;;;;22.58;9.18;;;8.20;78.30;;;;;;5100567;28;20036;-37
2021/01/10 15:16:51;;;;;;;20.63;8.90;;;8.30;77.70;;;;;;5100304;28;20028;-37
2021/01/10 15:19:17;;;;;;;14.30;8.90;;;8.30;77.20;;;;;;5100572;28;20032;-37
2021/01/10 15:21:44;;;;;;;20.50;9.53;;;8.30;77.10;;;;;;5100068;28;20484;-37
2021/01/10 15:24:10;;;;;;;18.98;8.93;;;8.30;77.00;;;;;;5100235;28;20476;-37
2021/01/10 15:26:36;;;;;;;13.27;5.70;;;8.30;77.00;;;;;;5100082;28;20105;-37
2021/01/10 15:29:02;;;;;;;17.42;7.60;;;8.40;77.40;;;;;;5100121;28;20492;-38
2021/01/10 15:31:28;;;;;;;20.02;7.80;;;8.70;77.20;;;;;;5099863;28;20080;-37
2021/01/10 15:33:55;;;;;;;14.65;8.15;;;8.70;76.50;;;;;;5100196;28;20056;-38
2021/01/10 15:36:21;;;;;;;19.95;8.63;;;8.80;76.40;;;;;;5100047;28;20058;-39
2021/01/10 15:38:48;;;;;;;10.30;6.10;;;8.90;76.70;;;;;;5098584;28;20503;-33
2021/01/10 15:41:15;;;;;;;14.05;7.82;;;8.90;77.40;;;;;;5110313;28;20122;-36
2021/01/10 15:43:41;;;;;;;13.10;8.00;;;9.00;76.00;;;;;;5099949;28;20111;-36
2021/01/10 15:46:11;;;;;;;13.77;7.53;;;9.00;75.80;;;;;;5099994;28;20111;-34
2021/01/10 15:48:38;;;;;;;14.65;8.30;;;9.10;75.90;;;;;;5099902;28;20024;-34
2021/01/10 15:51:08;;;;;;;13.98;7.53;;;9.50;74.60;;;;;;5104273;28;20054;-46
2021/01/10 15:53:34;;;;;;;16.38;8.63;;;9.50;74.20;;;;;;5097896;28;20029;-46
2021/01/10 15:56:01;;;;;;;15.27;7.93;;;9.40;74.80;;;;;;5099494;28;20048;-34
2021/01/10 15:58:27;;;;;;;10.43;7.68;;;9.30;75.20;;;;;;5098279;28;20040;-43
2021/01/10 16:00:55;;;;;;;11.80;7.28;;;9.30;75.60;;;;;;5098104;28;20024;-43
2021/01/10 16:03:21;;;;;;;11.40;7.72;;;9.30;75.80;;;;;;5099263;28;20037;-42
2021/01/10 16:05:47;;;;;;;8.30;5.63;;;9.20;75.70;;;;;;5110091;28;20817;-41
2021/01/10 16:08:13;;;;;;;13.48;7.28;;;9.20;75.40;;;;;;5108539;28;20257;-43
2021/01/10 16:10:40;;;;;;;15.85;7.22;;;9.10;75.30;;;;;;5093454;28;20520;-42
2021/01/10 16:13:06;;;;;;;13.00;7.60;;;9.10;75.40;;;;;;5105968;28;20036;-42
2021/01/10 16:15:33;;;;;;;6.35;5.10;;;9.00;75.20;;;;;;5106294;28;20035;-42
2021/01/10 16:17:59;;;;;;;10.27;7.50;;;9.00;75.20;;;;;;5106154;28;20032;-42
2021/01/10 16:20:25;;;;;;;13.10;7.80;;;8.90;75.20;;;;;;5105981;28;20035;-43
2021/01/10 16:22:52;;;;;;;12.70;7.30;;;8.90;75.50;;;;;;5105740;28;20039;-42
2021/01/10 16:25:20;;;;;;;8.93;6.78;;;8.80;75.70;;;;;;5105708;28;20052;-43
2021/01/10 16:27:47;;;;;;;16.08;7.38;;;8.80;76.00;;;;;;5105777;28;20058;-42
2021/01/10 16:30:14;;;;;;;14.18;7.70;;;8.80;76.20;;;;;;5105838;28;20024;-43
2021/01/10 16:32:40;;;;;;;10.23;5.28;;;8.80;76.30;;;;;;5105580;28;20055;-42
2021/01/10 16:35:07;;;;;;;8.02;6.38;;;8.70;76.30;;;;;;5105778;28;20118;-42
2021/01/10 16:37:33;;;;;;;8.48;6.15;;;8.70;76.50;;;;;;5104180;28;20116;-43
2021/01/10 16:39:59;;;;;;;10.57;6.93;;;8.70;76.70;;;;;;5105333;28;20028;-43
2021/01/10 16:42:26;;;;;;;10.35;6.80;;;8.60;76.70;;;;;;5095232;28;20028;-42
2021/01/10 16:44:52;;;;;;;12.05;7.88;;;8.60;76.70;;;;;;5083719;28;20538;-43
2021/01/10 16:47:18;;;;;;;9.63;6.63;;;8.60;76.90;;;;;;5067245;28;20083;-43
2021/01/10 16:49:45;;;;;;;10.45;4.93;;;8.60;77.00;;;;;;5085253;28;20032;-43
2021/01/10 16:52:11;;;;;;;8.25;7.00;;;8.60;77.00;;;;;;5084279;28;20047;-42
2021/01/10 16:54:38;;;;;;;8.20;6.75;;;8.50;77.10;;;;;;5085010;28;20025;-43
2021/01/10 16:57:04;;;;;;;8.75;6.65;;;8.50;77.20;;;;;;5083232;28;20417;-43
2021/01/10 16:59:31;;;;;;;9.20;6.25;;;8.50;77.30;;;;;;5085089;28;20029;-43
2021/01/10 17:01:57;;;;;;;7.70;5.95;;;8.50;77.40;;;;;;5083562;28;20029;-43
2021/01/10 17:04:23;;;;;;;9.18;6.68;;;8.50;77.40;;;;;;5084564;28;20024;-43
2021/01/10 17:06:49;;;;;;;9.73;6.60;;;8.50;77.50;;;;;;5084768;28;20024;-42
2021/01/10 17:09:15;;;;;;;11.27;6.60;;;8.50;77.60;;;;;;5084748;28;20028;-43
2021/01/10 17:11:46;;;;;;;7.47;6.07;;;8.50;77.60;;;;;;5085139;28;20047;-43
2021/01/10 17:14:13;;;;;;;10.27;6.32;;;8.40;77.60;;;;;;5084737;28;20417;-42
2021/01/10 17:16:39;;;;;;;11.57;7.05;;;8.40;77.80;;;;;;5083149;28;20068;-42
2021/01/10 17:19:06;;;;;;;9.52;6.43;;;8.40;77.80;;;;;;5083787;28;20058;-43
2021/01/10 17:21:32;;;;;;;17.77;6.53;;;8.40;77.80;;;;;;5084416;28;20070;-43
2021/01/10 17:23:59;;;;;;;9.15;6.75;;;8.40;77.90;;;;;;5084235;28;20031;-43
2021/01/10 17:26:26;;;;;;;8.15;6.70;;;8.40;77.90;;;;;;5084555;28;20040;-43
2021/01/10 17:28:52;;;;;;;8.55;6.35;;;8.40;78.10;;;;;;5084241;28;20025;-42
2021/01/10 17:31:19;;;;;;;6.55;5.70;;;8.40;78.20;;;;;;5084420;28;20520;-43
2021/01/10 17:33:48;;;;;;;7.90;5.88;;;8.40;78.20;;;;;;5082863;28;20025;-43
2021/01/10 17:36:33;;;;;;;10.32;6.40;;;8.40;78.30;;;;;;5084083;28;20060;-43
2021/01/10 17:38:59;;;;;;;9.88;6.57;;;8.40;78.30;;;;;;5082768;28;20017;-43
2021/01/10 17:41:25;;;;;;;8.15;6.28;;;8.40;78.40;;;;;;5084728;28;20064;-43
2021/01/10 17:43:51;;;;;;;8.05;6.63;;;8.30;78.30;;;;;;5083745;28;20046;-43
2021/01/10 17:46:20;;;;;;;10.32;6.80;;;8.40;78.50;;;;;;5084039;28;20718;-43
2021/01/10 17:48:46;;;;;;;9.77;6.65;;;8.30;78.40;;;;;;5084136;28;20021;-43
2021/01/10 17:51:13;;;;;;;5.68;4.25;;;8.40;78.50;;;;;;5082494;28;20033;-43
2021/01/10 17:53:39;;;;;;;7.90;6.43;;;8.40;79.20;;;;;;5083821;28;20071;-43
2021/01/10 17:56:06;;;;;;;9.70;6.88;;;8.30;78.50;;;;;;5082184;28;20075;-43
2021/01/10 17:58:33;;;;;;;;;;;8.40;78.60;;;;;;5084293;28;20036;-43
2021/01/10 18:00:59;;;;;;;7.15;6.22;;;8.40;78.60;;;;;;5084126;28;19931;-43
2021/01/10 18:03:25;;;;;;;7.80;6.40;;;8.30;78.70;;;;;;5095794;28;20037;-43
2021/01/10 18:05:51;;;;;;;7.60;6.45;;;8.40;78.70;;;;;;5083472;28;20024;-43
2021/01/10 18:08:17;;;;;;;8.43;6.18;;;8.40;78.80;;;;;;5083648;28;20036;-43
2021/01/10 18:10:44;;;;;;;7.07;6.07;;;8.30;78.80;;;;;;5083964;28;20017;-43
2021/01/10 18:13:13;;;;;;;7.65;6.45;;;8.30;78.80;;;;;;5083158;28;20032;-43
2021/01/10 18:15:39;;;;;;;8.85;6.82;;;8.40;78.90;;;;;;5084012;28;20499;-43
2021/01/10 18:18:06;;;;;;;7.40;6.25;;;8.40;79.00;;;;;;5100366;28;20032;-43
2021/01/10 18:20:32;;;;;;;11.00;6.32;;;8.40;79.00;;;;;;5103822;28;20050;-43
2021/01/10 18:22:58;;;;;;;7.50;6.28;;;8.40;79.20;;;;;;5103729;28;20024;-43
2021/01/10 18:25:25;;;;;;;7.50;6.28;;;8.40;79.20;;;;;;5103429;28;20039;-43
2021/01/10 18:27:54;;;;;;;7.70;6.32;;;8.40;79.60;;;;;;5103482;28;20028;-43
2021/01/10 18:30:20;;;;;;;7.55;6.20;;;8.40;80.00;;;;;;5103611;28;20062;-43
2021/01/10 18:32:48;;;;;;;6.93;5.80;;;8.40;80.20;;;;;;5103433;28;20032;-43
2021/01/10 18:35:14;;;;;;;7.13;5.90;;;8.40;80.20;;;;;;5103421;28;20054;-43
2021/01/10 18:37:40;;;;;;;7.35;6.03;;;8.40;80.20;;;;;;5103282;28;20024;-43
2021/01/10 18:40:07;;;;;;;7.28;4.45;;;8.40;80.00;;;;;;5102897;28;20052;-43
2021/01/10 18:42:34;;;;;;;8.02;5.97;;;8.50;80.40;;;;;;5091177;28;20028;-44
2021/01/10 18:45:01;;;;;;;7.82;6.00;;;8.50;80.30;;;;;;5082939;28;20028;-43
2021/01/10 18:47:27;;;;;;;4.68;4.28;;;8.50;80.10;;;;;;5083158;28;20048;-42
2021/01/10 18:49:53;;;;;;;7.10;6.40;;;8.50;80.20;;;;;;5083325;28;20024;-43
2021/01/10 18:52:20;;;;;;;7.93;6.18;;;8.50;80.10;;;;;;5082595;28;20028;-43
2021/01/10 18:54:47;;;;;;;6.90;6.10;;;8.50;80.10;;;;;;5082836;28;20025;-44
2021/01/10 18:57:13;;;;;;;7.53;6.18;;;8.50;80.10;;;;;;5082749;28;20055;-43
2021/01/10 18:59:39;;;;;;;7.13;6.13;;;8.50;80.10;;;;;;5083131;28;20075;-43
2021/01/10 19:02:08;;;;;;;7.55;6.40;;;8.50;80.00;;;;;;5083019;28;20048;-43
2021/01/10 19:04:34;;;;;;;6.90;6.20;;;8.50;80.10;;;;;;5082817;28;20043;-42
2021/01/10 19:07:06;;;;;;;6.82;6.13;;;8.50;80.10;;;;;;5082943;28;20069;-43
2021/01/10 19:09:36;;;;;;;6.97;5.80;;;8.60;80.30;;;;;;5082917;28;20027;-43
2021/01/10 19:12:03;;;;;;;7.28;6.57;;;8.50;80.20;;;;;;5083288;28;20028;-43
2021/01/10 19:14:29;;;;;;;;;;;8.60;80.20;;;;;;5083023;28;20057;-43
2021/01/10 19:16:55;;;;;;;6.68;5.40;;;8.60;80.20;;;;;;5082813;28;19913;-43
2021/01/10 19:19:21;;;;;;;4.95;4.32;;;8.60;80.20;;;;;;5082832;28;20571;-43
2021/01/10 19:21:48;;;;;;;7.07;6.13;;;8.60;80.20;;;;;;5082858;28;20028;-43
2021/01/10 19:24:14;;;;;;;6.95;5.60;;;8.60;80.20;;;;;;5081251;28;20062;-43
2021/01/10 19:26:40;;;;;;;6.75;5.88;;;8.60;80.20;;;;;;5082588;28;20040;-43
2021/01/10 19:29:07;;;;;;;7.00;5.37;;;8.60;80.20;;;;;;5082368;28;20059;-43
2021/01/10 19:31:35;;;;;;;6.88;5.82;;;8.60;80.20;;;;;;5082763;28;20054;-43
2021/01/10 19:34:01;;;;;;;7.18;5.65;;;8.60;80.30;;;;;;5082817;28;20033;-43
2021/01/10 19:36:28;;;;;;;7.20;6.00;;;8.60;80.30;;;;;;5082279;28;20111;-43
2021/01/10 19:38:54;;;;;;;6.93;6.22;;;8.60;80.30;;;;;;5081356;28;20511;-43
2021/01/10 19:41:22;;;;;;;6.30;5.65;;;8.70;80.40;;;;;;5081659;28;20032;-42
2021/01/10 19:43:48;;;;;;;7.57;6.03;;;8.70;80.40;;;;;;5084395;28;20024;-43
2021/01/10 19:46:15;;;;;;;7.00;6.00;;;8.70;80.30;;;;;;5086116;28;20044;-45
2021/01/10 19:48:42;;;;;;;7.75;5.80;;;8.70;80.40;;;;;;5086271;28;20036;-43
2021/01/10 19:51:19;;;;;;;6.72;5.72;;;8.70;80.40;;;;;;5085888;28;20029;-43
2021/01/10 19:53:45;;;;;;;8.75;5.80;;;8.70;80.40;;;;;;5086167;28;20082;-43
2021/01/10 19:56:11;;;;;;;7.22;6.03;;;8.70;80.40;;;;;;5085795;28;20159;-43
2021/01/10 19:58:38;;;;;;;6.35;5.55;;;8.70;80.40;;;;;;5087774;28;20394;-43
2021/01/10 20:01:04;;;;;;;6.07;5.47;;;8.70;80.40;;;;;;5084746;28;20037;-43
2021/01/10 20:03:31;;;;;;;8.60;5.97;;;8.70;80.50;;;;;;5085874;28;20028;-43
2021/01/10 20:05:57;;;;;;;6.05;5.45;;;8.70;80.40;;;;;;5084186;28;20052;-43
2021/01/10 20:08:23;;;;;;;7.18;5.97;;;8.70;80.40;;;;;;5085882;28;20048;-43
2021/01/10 20:10:50;;;;;;;6.43;5.72;;;8.70;80.50;;;;;;5086480;28;20021;-43
2021/01/10 20:13:16;;;;;;;6.82;5.85;;;8.80;80.50;;;;;;5092556;28;20046;-43
2021/01/10 20:15:42;;;;;;;7.22;5.88;;;8.80;80.50;;;;;;5102746;28;20032;-43
2021/01/10 20:18:08;;;;;;;6.75;6.05;;;8.80;80.50;;;;;;5106142;28;20024;-43
2021/01/10 20:20:35;;;;;;;7.68;5.80;;;8.80;80.50;;;;;;5105957;28;20027;-43
2021/01/10 20:23:01;;;;;;;6.53;5.22;;;8.80;80.60;;;;;;5105868;28;20032;-43
2021/01/10 20:25:28;;;;;;;6.13;5.38;;;8.80;80.50;;;;;;5105615;28;20040;-43
2021/01/10 20:27:54;;;;;;;7.03;5.70;;;8.80;80.30;;;;;;5104360;28;20028;-43
2021/01/10 20:30:20;;;;;;;6.68;5.60;;;8.80;80.30;;;;;;5105969;28;20020;-42
2021/01/10 20:32:47;;;;;;;5.85;5.25;;;8.80;80.20;;;;;;5105831;28;20026;-43
2021/01/10 20:35:14;;;;;;;5.93;5.32;;;8.80;80.20;;;;;;5105535;28;20020;-43
2021/01/10 20:37:40;;;;;;;6.18;5.57;;;8.90;80.20;;;;;;5104066;28;20036;-44
2021/01/10 20:40:08;;;;;;;7.05;6.00;;;8.90;80.50;;;;;;5104814;28;20050;-43
2021/01/10 20:42:34;;;;;;;6.30;5.35;;;8.90;80.60;;;;;;5094683;28;20055;-43
2021/01/10 20:45:00;;;;;;;6.47;4.90;;;8.80;80.60;;;;;;5085197;28;20633;-43
2021/01/10 20:47:26;;;;;;;6.22;5.63;;;8.90;80.60;;;;;;5084970;28;20040;-43
2021/01/10 20:49:53;;;;;;;7.57;5.68;;;8.90;80.50;;;;;;5083698;28;20020;-43
2021/01/10 20:52:19;;;;;;;5.97;5.15;;;8.90;80.60;;;;;;5084903;28;20033;-43
2021/01/10 20:54:45;;;;;;;5.90;5.07;;;8.90;80.60;;;;;;5084835;28;20037;-42
2021/01/10 20:57:12;;;;;;;5.82;5.15;;;8.90;80.50;;;;;;5084657;28;20221;-43
2021/01/10 20:59:38;;;;;;;6.32;5.72;;;8.90;80.50;;;;;;5083273;28;20030;-43
2021/01/10 21:02:05;;;;;;;6.43;5.40;;;8.90;80.50;;;;;;5085332;28;20028;-43
2021/01/10 21:04:35;;;;;;;6.22;5.63;;;8.90;80.60;;;;;;5084916;28;20031;-43
2021/01/10 21:07:01;;;;;;;6.88;5.22;;;8.90;80.50;;;;;;5084406;28;20044;-43
2021/01/10 21:09:27;;;;;;;5.90;5.20;;;8.90;80.50;;;;;;5084674;28;20131;-43
2021/01/10 21:11:54;;;;;;;5.78;4.95;;;8.90;81.30;;;;;;5085059;28;20111;-43
2021/01/10 21:14:20;;;;;;;6.63;5.63;;;8.90;80.50;;;;;;5084606;28;20020;-43
2021/01/10 21:16:47;;;;;;;6.75;5.28;;;8.90;80.50;;;;;;5084625;28;20067;-43
2021/01/10 21:19:17;;;;;;;6.32;5.38;;;8.90;80.50;;;;;;5084581;28;20074;-43
2021/01/10 21:21:45;;;;;;;5.72;5.13;;;8.90;80.50;;;;;;5084511;28;20492;-43
2021/01/10 21:24:15;;;;;;;5.75;5.05;;;8.90;80.50;;;;;;5084444;28;20024;-43
2021/01/10 21:26:41;;;;;;;6.22;4.85;;;8.90;80.60;;;;;;5084133;28;20138;-44
2021/01/10 21:29:08;;;;;;;5.65;5.15;;;8.90;80.40;;;;;;5084463;28;20021;-43
2021/01/10 21:31:34;;;;;;;5.60;5.00;;;8.90;80.50;;;;;;5084318;28;20036;-44
2021/01/10 21:34:00;;;;;;;5.70;5.00;;;9.00;80.50;;;;;;5084415;28;20036;-43
2021/01/10 21:36:31;;;;;;;5.75;5.15;;;8.90;80.50;;;;;;5083770;28;20047;-43
2021/01/10 21:38:57;;;;;;;6.28;5.60;;;8.90;80.30;;;;;;5082687;28;20361;-44
2021/01/10 21:41:29;;;;;;;6.72;5.50;;;9.00;80.50;;;;;;5086134;28;20032;-44
2021/01/10 21:43:56;;;;;;;6.40;4.80;;;9.00;80.50;;;;;;5104359;28;20032;-43
2021/01/10 21:46:22;;;;;;;5.75;5.15;;;9.00;80.50;;;;;;5102525;28;20036;-44
2021/01/10 21:48:48;;;;;;;5.95;4.88;;;9.00;80.50;;;;;;5104415;28;20480;-43
2021/01/10 21:51:15;;;;;;;5.78;4.72;;;9.00;80.60;;;;;;5093928;28;20028;-43
2021/01/10 21:53:41;;;;;;;4.10;3.72;;;9.00;80.50;;;;;;5083913;28;20031;-44
2021/01/10 21:56:08;;;;;;;6.45;5.43;;;9.00;80.50;;;;;;5083441;28;20056;-43
2021/01/10 21:58:35;;;;;;;5.72;5.03;;;9.00;80.40;;;;;;5083824;28;20029;-43
2021/01/10 22:01:02;;;;;;;5.93;5.32;;;9.00;80.50;;;;;;5083723;28;20032;-43
2021/01/10 22:03:28;;;;;;;6.07;4.82;;;9.00;80.40;;;;;;5083745;28;20037;-43
2021/01/10 22:05:55;;;;;;;6.25;5.28;;;9.00;80.50;;;;;;5084307;28;20036;-43
2021/01/10 22:08:21;;;;;;;6.05;5.30;;;9.00;80.50;;;;;;5103518;28;20084;-43
2021/01/10 22:10:51;;;;;;;5.78;5.07;;;9.00;80.50;;;;;;5103248;28;20024;-43
2021/01/10 22:13:17;;;;;;;5.93;5.10;;;9.00;80.40;;;;;;5103866;28;20024;-43
2021/01/10 22:15:43;;;;;;;5.95;5.32;;;9.00;80.40;;;;;;5093112;28;20024;-43
2021/01/10 22:18:10;;;;;;;5.25;4.75;;;9.00;80.40;;;;;;5083174;28;20021;-44
2021/01/10 22:20:37;;;;;;;5.85;5.32;;;9.00;80.40;;;;;;5083382;28;20191;-43
2021/01/10 22:23:03;;;;;;;5.70;4.63;;;9.00;80.40;;;;;;5083243;28;20047;-43
2021/01/10 22:25:30;;;;;;;5.35;4.80;;;9.00;80.40;;;;;;5083376;28;20028;-43
2021/01/10 22:27:56;;;;;;;5.38;4.55;;;9.00;80.40;;;;;;5083013;28;20119;-43
2021/01/10 22:30:22;;;;;;;6.47;4.90;;;9.00;80.50;;;;;;5083392;28;20024;-43
2021/01/10 22:32:48;;;;;;;5.90;5.30;;;9.00;80.50;;;;;;5083374;28;20028;-43
2021/01/10 22:35:14;;;;;;;5.75;5.13;;;9.00;80.40;;;;;;5083398;28;20734;-43
2021/01/10 22:37:41;;;;;;;5.60;5.10;;;9.00;80.40;;;;;;5082908;28;20542;-43
2021/01/10 22:40:08;;;;;;;6.53;5.75;;;9.00;80.40;;;;;;5083554;28;20064;-43
2021/01/10 22:42:36;;;;;;;5.70;5.07;;;9.00;80.40;;;;;;5081700;28;20039;-43
2021/01/10 22:45:10;;;;;;;5.20;4.70;;;9.00;80.40;;;;;;5083389;28;20020;-43
2021/01/10 22:47:36;;;;;;;5.70;5.10;;;9.00;80.50;;;;;;5082726;28;20036;-43
2021/01/10 22:50:03;;;;;;;5.85;5.05;;;9.00;80.50;;;;;;5083188;28;20024;-44
2021/01/10 22:52:29;;;;;;;5.95;4.93;;;9.00;80.40;;;;;;5082811;28;20477;-43
2021/01/10 22:54:56;;;;;;;6.05;4.72;;;9.00;80.50;;;;;;5082851;28;20036;-43
2021/01/10 22:57:23;;;;;;;6.07;5.18;;;9.00;80.50;;;;;;5082726;28;20054;-43
2021/01/10 22:59:49;;;;;;;5.85;5.07;;;9.00;80.40;;;;;;5082909;28;20091;-43
2021/01/10 23:02:15;;;;;;;5.68;4.90;;;9.00;80.50;;;;;;5083056;28;20040;-43
2021/01/10 23:04:41;;;;;;;6.43;4.68;;;8.90;81.10;;;;;;5082978;28;20048;-43
2021/01/10 23:07:07;;;;;;;5.95;5.00;;;8.90;80.50;;;;;;5082723;28;20078;-43
2021/01/10 23:09:34;;;;;;;4.80;4.32;;;9.00;80.60;;;;;;5082899;28;20031;-43
2021/01/10 23:12:00;;;;;;;6.63;5.40;;;8.90;80.40;;;;;;5083475;28;20055;-43
2021/01/10 23:14:26;;;;;;;4.47;4.03;;;8.90;80.60;;;;;;5083094;28;20017;-43
2021/01/10 23:16:56;;;;;;;5.93;5.07;;;8.90;80.40;;;;;;5081584;28;20265;-43
2021/01/10 23:19:32;;;;;;;6.78;5.13;;;8.90;80.50;;;;;;5086913;28;20397;-43
2021/01/10 23:22:11;;;;;;;5.65;5.03;;;8.90;80.40;;;;;;5086576;28;20029;-43
2021/01/10 23:24:38;;;;;;;5.43;4.70;;;8.90;80.30;;;;;;5086978;28;20094;-43
2021/01/10 23:27:08;;;;;;;5.72;4.68;;;8.90;80.50;;;;;;5085133;28;20037;-43
2021/01/10 23:29:35;;;;;;;6.57;4.75;;;8.90;80.40;;;;;;5068946;28;20024;-43
2021/01/10 23:32:01;;;;;;;5.30;4.80;;;8.90;80.40;;;;;;5086614;28;20031;-43
2021/01/10 23:34:28;;;;;;;5.72;4.78;;;8.90;80.50;;;;;;5086670;28;20040;-44
2021/01/10 23:36:54;;;;;;;5.63;4.80;;;8.90;80.40;;;;;;5086272;28;20063;-43
2021/01/10 23:39:20;;;;;;;5.45;4.78;;;8.90;80.60;;;;;;5086537;28;20025;-43
2021/01/10 23:41:50;;;;;;;5.13;4.45;;;8.90;80.60;;;;;;5086865;28;20032;-44
2021/01/10 23:44:16;;;;;;;6.28;4.85;;;8.90;80.90;;;;;;5086259;28;20025;-43
2021/01/10 23:46:43;;;;;;;6.15;5.15;;;8.80;80.80;;;;;;5086093;28;20075;-43
2021/01/10 23:49:09;;;;;;;5.13;4.60;;;8.80;81.00;;;;;;5086295;28;20024;-43
2021/01/10 23:51:39;;;;;;;5.47;4.50;;;8.80;81.00;;;;;;5086082;28;20028;-43
2021/01/10 23:54:07;;;;;;;6.57;4.63;;;8.80;80.80;;;;;;5086032;28;20028;-43
2021/01/10 23:56:34;;;;;;;4.85;4.35;;;8.80;80.70;;;;;;5085773;28;20059;-44
2021/01/10 23:59:00;;;;;;;6.32;4.45;;;8.80;80.60;;;;;;5085914;28;20028;-43
